Time;durP1;ratioP1;P1;durP2;ratioP2;P2;SDS_P1;SDS_P2;PMS_P1;PMS_P2;Temp;Humidity;BMP_temperature;BMP_pressure;BME280_temperature;BME280_humidity;BME280_pressure;Samples;Min_cycle;Max_cycle;Signal;HPM_P1;HPM_P2
2022/04/16 00:00:52;;;;;;;5.20;4.53;;;;;;;11.99;82.67;96163.22;6368537;22;20009;-59
2022/04/16 00:03:17;;;;;;;10.07;5.20;;;;;;;11.96;83.36;96160.03;6367508;22;20453;-60
2022/04/16 00:05:44;;;;;;;5.63;4.78;;;;;;;11.99;82.77;96160.59;6368244;22;19998;-61
2022/04/16 00:08:09;;;;;;;5.43;4.93;;;;;;;11.99;83.05;96150.03;6368147;22;20002;-60
2022/04/16 00:10:37;;;;;;;5.22;4.45;;;;;;;11.89;83.56;96157.13;6340178;22;19998;-60
2022/04/16 00:13:03;;;;;;;5.32;4.85;;;;;;;11.83;83.54;96147.94;6368745;22;20003;-60
2022/04/16 00:15:29;;;;;;;7.15;5.70;;;;;;;11.81;83.11;96146.41;6368061;22;20017;-60
2022/04/16 00:17:58;;;;;;;10.27;5.28;;;;;;;11.81;83.37;96149.91;6368254;22;20002;-60
2022/04/16 00:20:27;;;;;;;4.93;4.50;;;;;;;11.82;82.93;96138.38;6367819;22;19999;-59
2022/04/16 00:22:53;;;;;;;5.50;5.00;;;;;;;11.80;83.43;96139.47;6368024;22;20013;-58
2022/04/16 00:25:19;;;;;;;5.20;4.70;;;;;;;11.74;83.85;96146.16;6367996;22;20041;-60
2022/04/16 00:27:46;;;;;;;7.18;4.53;;;;;;;11.69;83.40;96143.94;6367892;22;20002;-59
2022/04/16 00:30:12;;;;;;;5.22;4.43;;;;;;;11.71;83.52;96138.50;6367601;22;20535;-59
2022/04/16 00:32:37;;;;;;;8.77;5.15;;;;;;;11.65;83.73;96145.19;6340175;22;20002;-59
2022/04/16 00:35:03;;;;;;;5.45;4.75;;;;;;;11.63;83.72;96139.22;6367828;22;20067;-59
2022/04/16 00:37:28;;;;;;;7.45;5.10;;;;;;;11.61;83.47;96138.50;6367661;22;20002;-59
2022/04/16 00:39:53;;;;;;;6.38;5.40;;;;;;;11.60;83.69;96137.66;6367889;22;20005;-60
2022/04/16 00:42:19;;;;;;;5.78;4.97;;;;;;;11.57;84.32;96134.47;6367749;22;20427;-60
2022/04/16 00:44:44;;;;;;;7.10;5.00;;;;;;;11.52;84.12;96121.72;6367602;22;20013;-60
2022/04/16 00:47:10;;;;;;;5.03;4.63;;;;;;;11.50;84.21;96133.34;6368183;22;20006;-60
2022/04/16 00:49:36;;;;;;;6.57;4.88;;;;;;;11.52;83.09;96126.97;6339300;22;20033;-59
2022/04/16 00:52:01;;;;;;;7.20;4.78;;;;;;;11.51;83.79;96129.75;6368453;22;20006;-60
2022/04/16 00:54:27;;;;;;;6.25;4.50;;;;;;;11.48;83.85;96122.94;6367500;22;20422;-60
2022/04/16 00:56:53;;;;;;;6.88;5.22;;;;;;;11.52;82.91;96126.13;6367873;22;20019;-60
2022/04/16 00:59:19;;;;;;;6.40;5.18;;;;;;;11.37;84.42;96123.88;6367673;22;20060;-59
2022/04/16 01:01:44;;;;;;;7.95;4.60;;;;;;;11.27;86.14;96120.41;6367571;22;20041;-60
2022/04/16 01:04:09;;;;;;;7.50;5.55;;;;;;;11.24;84.97;96125.97;6367440;22;20063;-59
2022/04/16 01:06:39;;;;;;;6.68;5.57;;;;;;;11.27;84.40;96121.25;6367826;22;20009;-60
2022/04/16 01:09:05;;;;;;;7.63;5.38;;;;;;;11.44;83.27;96122.38;6367930;22;20041;-60
2022/04/16 01:11:32;;;;;;;7.25;5.50;;;;;;;11.41;83.40;96127.09;6367646;22;20029;-59
2022/04/16 01:13:58;;;;;;;5.65;4.85;;;;;;;11.40;84.08;96123.63;6367767;22;20090;-59
2022/04/16 01:16:24;;;;;;;7.20;5.25;;;;;;;11.31;83.96;96122.66;6366873;22;19999;-59
2022/04/16 01:18:49;;;;;;;6.15;5.10;;;;;;;11.25;84.76;96123.16;6367245;22;20139;-60
2022/04/16 01:21:15;;;;;;;7.82;5.03;;;;;;;11.23;85.60;96121.66;6367352;22;20335;-59
2022/04/16 01:23:40;;;;;;;9.38;6.32;;;;;;;11.24;84.86;96112.78;6367288;22;20056;-59
2022/04/16 01:26:06;;;;;;;9.55;7.07;;;;;;;11.27;84.75;96116.00;6367612;22;20002;-59
2022/04/16 01:28:32;;;;;;;7.93;6.55;;;;;;;11.27;83.60;96108.09;6367085;22;20010;-60
2022/04/16 01:30:57;;;;;;;8.02;7.22;;;;;;;11.23;84.11;96108.47;6367670;22;20062;-59
2022/04/16 01:33:22;;;;;;;9.73;7.63;;;;;;;11.14;84.74;96113.56;6367413;22;20414;-59
2022/04/16 01:35:51;;;;;;;10.80;7.30;;;;;;;11.11;84.81;96111.22;6367650;22;20373;-59
2022/04/16 01:38:16;;;;;;;16.00;8.90;;;;;;;11.06;85.03;96100.25;6367050;22;20009;-59
2022/04/16 01:40:42;;;;;;;10.77;8.45;;;;;;;11.04;84.66;96110.91;6366946;22;19995;-59
2022/04/16 01:43:07;;;;;;;12.52;9.13;;;;;;;11.05;84.37;96106.50;6367298;22;20051;-59
2022/04/16 01:45:33;;;;;;;14.43;9.70;;;;;;;11.05;84.14;96106.50;6366849;22;20010;-59
2022/04/16 01:47:59;;;;;;;11.95;8.95;;;;;;;11.01;84.65;96111.19;6367377;22;20013;-59
2022/04/16 01:50:24;;;;;;;11.73;9.80;;;;;;;11.04;84.26;96110.09;6366733;22;20350;-59
2022/04/16 01:52:52;;;;;;;13.00;10.45;;;;;;;11.04;84.56;96107.47;6367243;22;20010;-59
2022/04/16 01:55:17;;;;;;;11.05;9.38;;;;;;;11.00;85.46;96106.06;6367612;22;20049;-59
2022/04/16 01:57:43;;;;;;;11.52;7.93;;;;;;;10.94;85.45;96112.69;6366930;22;19998;-59
2022/04/16 02:00:11;;;;;;;9.98;8.38;;;;;;;10.86;84.76;96107.28;6367072;22;20002;-59
2022/04/16 02:02:36;;;;;;;10.43;7.75;;;;;;;10.80;85.78;96106.00;6366836;22;20006;-59
2022/04/16 02:05:06;;;;;;;8.02;6.97;;;;;;;10.72;85.93;96108.44;6366913;22;20563;-60
2022/04/16 02:07:32;;;;;;;8.40;7.38;;;;;;;10.70;85.84;96100.69;6367154;22;20010;-59
2022/04/16 02:09:57;;;;;;;8.30;7.20;;;;;;;10.66;85.91;96109.84;6367128;22;20025;-59
2022/04/16 02:12:23;;;;;;;8.88;6.63;;;;;;;10.63;85.95;96110.09;6366958;22;20009;-60
2022/04/16 02:14:48;;;;;;;8.82;7.22;;;;;;;10.60;86.16;96111.19;6366768;22;19999;-59
2022/04/16 02:17:13;;;;;;;10.52;7.00;;;;;;;10.59;85.86;96114.78;6366852;22;19999;-59
2022/04/16 02:19:39;;;;;;;14.65;7.35;;;;;;;10.59;85.76;96108.66;6366857;22;20342;-59
2022/04/16 02:22:05;;;;;;;14.05;7.15;;;;;;;10.56;85.80;96103.69;6367382;22;20036;-59
2022/04/16 02:24:30;;;;;;;9.55;7.60;;;;;;;10.49;86.87;96108.63;6366606;22;20006;-59
2022/04/16 02:26:57;;;;;;;9.40;7.13;;;;;;;10.50;86.69;96112.97;6366353;22;20006;-59
2022/04/16 02:29:22;;;;;;;11.48;7.70;;;;;;;10.49;86.39;96111.25;6366681;22;20014;-59
2022/04/16 02:31:48;;;;;;;7.38;6.38;;;;;;;10.50;86.22;96109.47;6367509;22;20119;-59
2022/04/16 02:34:14;;;;;;;9.45;6.75;;;;;;;10.48;85.98;96104.31;6366828;22;20334;-59
2022/04/16 02:36:40;;;;;;;7.75;6.20;;;;;;;10.43;86.44;96106.53;6366988;22;20438;-59
2022/04/16 02:39:08;;;;;;;8.90;5.95;;;;;;;10.39;85.91;96110.34;6366665;22;20012;-59
2022/04/16 02:41:33;;;;;;;9.27;6.35;;;;;;;10.35;86.54;96109.78;6367059;22;20009;-59
2022/04/16 02:43:59;;;;;;;10.52;6.20;;;;;;;10.34;86.77;96117.81;6366491;22;20010;-59
2022/04/16 02:49:10;;;;;;;25.63;11.65;;;;;;;10.23;87.28;96108.19;6366559;22;20044;-59
2022/04/16 02:51:35;;;;;;;25.70;11.57;;;;;;;10.24;86.96;96123.03;6366963;22;20022;-59
2022/04/16 02:54:00;;;;;;;18.17;8.90;;;;;;;10.22;87.32;96111.78;6366970;22;20420;-60
2022/04/16 02:56:26;;;;;;;17.95;9.32;;;;;;;10.18;87.39;96104.16;6366662;22;20007;-59
2022/04/16 02:58:51;;;;;;;20.40;9.35;;;;;;;10.17;87.51;96099.88;6338834;22;20346;-58
2022/04/16 03:01:17;;;;;;;17.52;10.13;;;;;;;10.15;87.26;96098.31;6366669;22;20326;-59
2022/04/16 03:03:42;;;;;;;18.58;9.90;;;;;;;10.07;88.58;96098.13;6366546;22;20005;-59
2022/04/16 03:06:08;;;;;;;17.90;9.60;;;;;;;10.00;88.55;96097.81;6366745;22;20044;-59
2022/04/16 03:08:34;;;;;;;19.63;8.77;;;;;;;10.01;88.05;96100.28;6366522;22;19998;-59
2022/04/16 03:11:00;;;;;;;11.88;7.63;;;;;;;9.97;88.54;96098.88;6366747;22;20029;-59
2022/04/16 03:13:25;;;;;;;11.77;7.47;;;;;;;9.94;87.81;96104.41;6366946;22;20013;-59
2022/04/16 03:18:34;;;;;;;10.45;6.30;;;;;;;9.98;87.20;96090.03;6366473;22;20074;-60
2022/04/16 03:21:01;;;;;;;11.77;6.15;;;;;;;9.92;87.74;96095.81;6366855;22;20036;-59
2022/04/16 03:23:27;;;;;;;8.30;5.88;;;;;;;9.86;88.20;96093.72;6366459;22;20002;-57
2022/04/16 03:25:56;;;;;;;8.10;5.43;;;;;;;9.87;87.99;96100.63;6366794;22;20013;-59
2022/04/16 03:28:22;;;;;;;8.57;5.45;;;;;;;9.84;88.00;96101.72;6366613;22;20029;-59
2022/04/16 03:30:47;;;;;;;9.57;5.90;;;;;;;9.78;88.62;96094.34;6366789;22;19998;-59
2022/04/16 03:33:13;;;;;;;8.75;5.40;;;;;;;9.82;88.49;96100.16;6366540;22;20514;-59
2022/04/16 03:35:38;;;;;;;7.95;5.50;;;;;;;9.86;88.48;96094.53;6338924;22;20093;-59
2022/04/16 03:38:04;;;;;;;7.95;5.70;;;;;;;9.86;88.52;96101.59;6366526;22;20342;-59
2022/04/16 03:40:29;;;;;;;6.60;5.40;;;;;;;9.79;88.71;96092.53;6369115;22;20081;-59
2022/04/16 03:42:58;;;;;;;9.90;5.53;;;;;;;9.68;89.80;96098.69;6368272;22;20008;-60
2022/04/16 03:45:29;;;;;;;7.15;6.38;;;;;;;9.62;89.72;96084.25;6368395;22;20014;-59
2022/04/16 03:47:56;;;;;;;8.48;6.10;;;;;;;9.62;89.29;96086.03;6368641;22;20006;-59
2022/04/16 03:50:22;;;;;;;7.10;5.57;;;;;;;9.56;90.22;96093.47;6368140;22;20585;-59
2022/04/16 03:52:50;;;;;;;8.27;6.18;;;;;;;9.48;90.95;96095.06;6368945;22;20003;-59
2022/04/16 04:00:49;;;;;;;6.20;5.70;;;;;;;9.52;90.10;96080.69;6368232;22;20461;-59
2022/04/16 04:03:15;;;;;;;7.70;6.50;;;;;;;9.52;89.89;96073.66;6367979;22;20002;-59
2022/04/16 04:05:42;;;;;;;21.40;13.68;;;;;;;9.45;90.30;96080.38;6368354;22;20002;-59
2022/04/16 04:08:08;;;;;;;26.25;15.20;;;;;;;9.42;89.76;96080.63;6368168;22;20447;-59
2022/04/16 04:10:35;;;;;;;20.50;14.25;;;;;;;9.43;89.95;96079.66;6368101;22;20002;-59
2022/04/16 04:13:01;;;;;;;11.82;9.30;;;;;;;9.44;90.50;96079.53;6368168;22;20038;-59
2022/04/16 04:15:27;;;;;;;17.77;12.20;;;;;;;9.40;90.35;96080.75;6367952;22;20015;-59
2022/04/16 04:17:53;;;;;;;12.20;9.52;;;;;;;9.39;90.11;96086.13;6368166;22;20003;-58
2022/04/16 04:20:19;;;;;;;34.30;14.55;;;;;;;9.35;90.32;96084.72;6367917;22;20002;-59
2022/04/16 04:22:44;;;;;;;20.65;11.60;;;;;;;9.31;89.67;96086.75;6368376;22;20442;-59
2022/04/16 04:25:10;;;;;;;16.35;9.45;;;;;;;9.24;90.36;96091.66;6367737;22;20089;-59
2022/04/16 04:27:35;;;;;;;16.10;8.95;;;;;;;9.22;90.35;96087.50;6367989;22;20078;-59
2022/04/16 04:30:01;;;;;;;14.45;8.80;;;;;;;9.20;90.97;96095.50;6368129;22;20426;-59
2022/04/16 04:32:27;;;;;;;11.68;8.40;;;;;;;9.16;90.64;96089.66;6367631;22;20047;-59
2022/04/16 04:34:53;;;;;;;13.07;7.75;;;;;;;9.15;90.65;96093.22;6368025;22;20002;-59
2022/04/16 04:37:18;;;;;;;12.18;8.48;;;;;;;9.14;90.62;96094.19;6367926;22;20009;-59
2022/04/16 04:39:43;;;;;;;17.17;8.32;;;;;;;9.24;90.28;96091.66;6367815;22;20003;-59
2022/04/16 04:42:09;;;;;;;13.98;7.75;;;;;;;9.24;90.55;96093.47;6367518;22;19998;-59
2022/04/16 04:44:34;;;;;;;11.20;8.38;;;;;;;9.17;91.33;96095.75;6367601;22;20010;-59
2022/04/16 04:47:00;;;;;;;11.13;7.95;;;;;;;9.10;91.60;96084.06;6367914;22;20003;-59
2022/04/16 04:49:25;;;;;;;13.80;8.60;;;;;;;9.08;91.88;96089.44;6367174;22;20340;-59
2022/04/16 04:51:50;;;;;;;10.23;7.63;;;;;;;9.05;91.36;96092.31;6368007;22;20096;-60
2022/04/16 04:54:16;;;;;;;13.38;9.02;;;;;;;8.93;92.11;96098.53;6367636;22;20002;-59
2022/04/16 04:56:41;;;;;;;8.77;7.82;;;;;;;8.84;91.45;96089.59;6367888;22;20013;-59
2022/04/16 04:59:07;;;;;;;12.25;7.30;;;;;;;8.89;91.56;96092.72;6367623;22;20081;-59
2022/04/16 05:01:32;;;;;;;8.73;6.50;;;;;;;8.89;91.76;96088.28;6367579;22;20002;-59
2022/04/16 05:03:58;;;;;;;8.10;5.75;;;;;;;8.89;91.61;96092.72;6367325;22;20006;-60
2022/04/16 05:06:23;;;;;;;8.45;5.82;;;;;;;8.89;91.66;96090.91;6367426;22;20002;-59
2022/04/16 05:08:48;;;;;;;6.53;5.82;;;;;;;8.86;91.56;96092.94;6367897;22;20065;-59
2022/04/16 05:11:14;;;;;;;6.68;5.90;;;;;;;8.83;92.06;96087.91;6367553;22;20491;-59
2022/04/16 05:13:40;;;;;;;9.52;6.53;;;;;;;8.79;92.27;96100.47;6367678;22;20104;-60
2022/04/16 05:16:05;;;;;;;6.85;6.15;;;;;;;8.83;92.28;96082.66;6367567;22;20018;-59
2022/04/16 05:18:31;;;;;;;6.90;5.72;;;;;;;8.78;92.60;96092.69;6367583;22;20426;-59
2022/04/16 05:20:56;;;;;;;5.55;4.95;;;;;;;8.78;92.63;96098.81;6367430;22;20025;-59
2022/04/16 05:23:22;;;;;;;5.57;5.03;;;;;;;8.86;92.60;96090.31;6367328;22;20006;-59
2022/04/16 05:25:48;;;;;;;7.10;5.63;;;;;;;8.93;92.17;96096.75;6367403;22;20491;-59
2022/04/16 05:28:13;;;;;;;8.48;5.93;;;;;;;8.96;91.95;96100.94;6367303;22;20002;-59
2022/04/16 05:30:44;;;;;;;9.95;5.80;;;;;;;8.98;91.96;96091.16;6367287;22;20268;-59
2022/04/16 05:34:18;;;;;;;6.55;5.53;;;;;;;8.97;91.84;96100.78;6367579;22;20009;-59
2022/04/16 05:36:02;;;;;;;9.25;5.65;;;;;;;8.96;91.42;96109.63;6366881;22;20011;-59
2022/04/16 05:38:28;;;;;;;7.05;5.57;;;;;;;8.97;91.09;96110.47;6367616;22;20009;-59
2022/04/16 05:40:53;;;;;;;7.13;6.20;;;;;;;9.06;91.71;96109.75;6367050;22;20077;-60
2022/04/16 05:43:19;;;;;;;9.15;5.28;;;;;;;9.15;90.78;96113.44;6367585;22;20006;-59
2022/04/16 05:45:44;;;;;;;9.60;5.95;;;;;;;9.10;91.04;96113.78;6367150;22;20006;-59
2022/04/16 05:48:10;;;;;;;7.55;6.70;;;;;;;9.16;91.44;96126.41;6367030;22;20036;-59
2022/04/16 05:50:35;;;;;;;10.65;8.30;;;;;;;9.16;92.35;96118.53;6366912;22;20327;-59
2022/04/16 05:53:01;;;;;;;10.18;7.85;;;;;;;9.24;92.07;96119.75;6367101;22;20351;-59
2022/04/16 05:55:27;;;;;;;8.90;7.32;;;;;;;9.36;91.27;96123.16;6367395;22;20009;-59
2022/04/16 05:57:52;;;;;;;6.47;5.88;;;;;;;9.46;90.26;96113.56;6366958;22;20003;-59
2022/04/16 06:00:17;;;;;;;8.38;6.07;;;;;;;9.52;90.06;96118.34;6366957;22;20077;-59
2022/04/16 06:02:43;;;;;;;7.32;5.50;;;;;;;9.55;89.98;96122.50;6367199;22;20044;-59
2022/04/16 06:05:09;;;;;;;6.55;5.90;;;;;;;9.60;89.95;96117.69;6366870;22;20056;-60
2022/04/16 06:07:34;;;;;;;9.27;5.75;;;;;;;9.66;89.60;96121.63;6366762;22;20009;-60
2022/04/16 06:10:00;;;;;;;9.15;5.43;;;;;;;9.71;89.06;96117.66;6366998;22;20062;-59
2022/04/16 06:12:28;;;;;;;9.13;5.68;;;;;;;9.78;89.54;96117.16;6367175;22;20085;-59
2022/04/16 06:14:54;;;;;;;9.48;6.38;;;;;;;9.78;90.23;96123.25;6367086;22;20584;-59
2022/04/16 06:17:19;;;;;;;7.95;6.50;;;;;;;9.81;89.44;96116.91;6366907;22;19999;-59
2022/04/16 06:19:45;;;;;;;7.07;6.38;;;;;;;9.85;89.22;96111.28;6367084;22;20013;-60
2022/04/16 06:22:11;;;;;;;10.82;6.35;;;;;;;9.87;89.01;96105.91;6366942;22;20377;-59
2022/04/16 06:24:41;;;;;;;7.30;6.55;;;;;;;10.00;88.14;96103.06;6367137;22;20037;-59
2022/04/16 06:27:06;;;;;;;8.30;6.30;;;;;;;10.35;87.20;96098.44;6366682;22;20347;-59
2022/04/16 06:29:31;;;;;;;7.32;6.10;;;;;;;11.02;84.66;96104.94;6367258;22;20002;-59
2022/04/16 06:31:57;;;;;;;7.28;6.57;;;;;;;11.72;83.69;96100.63;6366865;22;20364;-59
2022/04/16 06:34:23;;;;;;;11.30;5.85;;;;;;;12.32;80.27;96097.78;6366756;22;20007;-59
2022/04/16 06:36:49;;;;;;;10.40;5.68;;;;;;;12.96;77.84;96094.47;6366822;22;20022;-59
2022/04/16 06:39:15;;;;;;;8.85;5.40;;;;;;;13.53;75.21;96088.19;6366947;22;20025;-60
2022/04/16 06:41:40;;;;;;;10.05;4.97;;;;;;;13.97;72.78;96087.41;6366853;22;19998;-59
2022/04/16 06:44:06;;;;;;;8.20;4.82;;;;;;;14.47;70.95;96093.03;6366797;22;20044;-59
2022/04/16 06:46:32;;;;;;;9.98;6.25;;;;;;;14.87;69.56;96077.53;6367013;22;20456;-59
2022/04/16 06:48:58;;;;;;;6.53;4.75;;;;;;;15.45;67.78;96085.66;6366797;22;20052;-60
2022/04/16 06:51:23;;;;;;;5.35;4.47;;;;;;;15.90;62.46;96086.25;6366693;22;20354;-59
2022/04/16 06:53:49;;;;;;;5.95;3.97;;;;;;;16.20;61.49;96083.91;6366666;22;20232;-60
2022/04/16 06:56:14;;;;;;;6.95;3.20;;;;;;;16.53;58.71;96083.88;6366622;22;19998;-60
2022/04/16 06:58:39;;;;;;;4.82;3.83;;;;;;;17.04;58.78;96085.38;6366703;22;20442;-59
2022/04/16 07:01:05;;;;;;;6.50;3.67;;;;;;;17.48;58.03;96084.00;6366954;22;20009;-59
2022/04/16 07:03:30;;;;;;;3.85;3.55;;;;;;;17.68;56.36;96076.38;6366617;22;20024;-60
2022/04/16 07:05:55;;;;;;;5.45;3.60;;;;;;;17.69;55.56;96067.38;6367097;22;20026;-59
2022/04/16 07:08:21;;;;;;;4.00;3.28;;;;;;;17.54;55.80;96075.31;6366825;22;20075;-59
2022/04/16 07:10:46;;;;;;;3.13;2.90;;;;;;;17.67;55.30;96065.91;6366918;22;20503;-60
2022/04/16 07:13:11;;;;;;;4.97;3.40;;;;;;;17.98;53.08;96067.69;6366800;22;20006;-60
2022/04/16 07:15:37;;;;;;;6.38;3.45;;;;;;;18.23;51.90;96062.16;6368405;22;20010;-59
2022/04/16 07:18:03;;;;;;;3.10;2.90;;;;;;;18.52;51.10;96056.03;6369002;22;20048;-59
2022/04/16 07:20:28;;;;;;;7.53;2.97;;;;;;;18.61;50.90;96060.25;6368784;22;19999;-60
2022/04/16 07:22:54;;;;;;;3.67;2.83;;;;;;;18.72;51.30;96058.97;6368655;22;20025;-59
2022/04/16 07:25:21;;;;;;;5.55;3.55;;;;;;;18.81;51.36;96065.03;6340737;22;20072;-60
2022/04/16 07:27:46;;;;;;;3.42;3.15;;;;;;;18.87;50.27;96058.16;6368693;22;20002;-60
2022/04/16 07:30:11;;;;;;;5.72;3.10;;;;;;;18.89;50.19;96062.25;6368347;22;20070;-60
2022/04/16 07:32:38;;;;;;;3.95;3.55;;;;;;;19.11;48.56;96057.03;6368808;22;20006;-60
2022/04/16 07:35:04;;;;;;;5.38;3.50;;;;;;;19.09;48.61;96058.25;6368613;22;20144;-60
2022/04/16 07:37:30;;;;;;;5.78;3.28;;;;;;;19.25;48.92;96054.53;6368379;22;20009;-60
2022/04/16 07:39:55;;;;;;;3.58;3.28;;;;;;;19.17;48.62;96053.63;6368161;22;19998;-60
2022/04/16 07:42:20;;;;;;;6.72;3.30;;;;;;;19.25;48.07;96046.50;6368358;22;20032;-60
2022/04/16 07:44:46;;;;;;;5.82;3.78;;;;;;;19.34;47.66;96042.72;6368311;22;20003;-59
2022/04/16 07:47:11;;;;;;;5.43;3.10;;;;;;;19.56;46.86;96040.06;6368756;22;20006;-60
2022/04/16 07:49:36;;;;;;;4.05;3.40;;;;;;;19.43;47.12;96048.75;6367793;22;20313;-60
2022/04/16 07:52:02;;;;;;;10.57;3.42;;;;;;;19.74;45.62;96044.97;6368680;22;20013;-60
2022/04/16 07:54:27;;;;;;;4.97;3.13;;;;;;;19.74;45.65;96043.13;6368070;22;20056;-59
2022/04/16 07:56:53;;;;;;;6.60;3.58;;;;;;;19.79;45.83;96047.09;6368149;22;20006;-59
2022/04/16 07:59:19;;;;;;;5.15;3.28;;;;;;;20.05;44.10;96049.16;6368226;22;20025;-59
2022/04/16 08:01:44;;;;;;;4.78;2.97;;;;;;;20.09;44.74;96045.09;6368566;22;20330;-59
2022/04/16 08:04:10;;;;;;;10.35;3.50;;;;;;;20.39;43.33;96044.91;6368075;22;20003;-59
2022/04/16 08:06:35;;;;;;;8.90;3.33;;;;;;;19.99;44.53;96048.09;6368647;22;19998;-59
2022/04/16 08:09:01;;;;;;;3.47;3.28;;;;;;;20.08;44.73;96045.28;6368331;22;20086;-59
2022/04/16 08:11:30;;;;;;;6.95;3.78;;;;;;;20.26;44.03;96042.13;6368151;22;20391;-59
2022/04/16 08:13:57;;;;;;;11.88;3.53;;;;;;;20.00;44.28;96044.41;6367877;22;19998;-59
2022/04/16 08:16:22;;;;;;;3.70;3.20;;;;;;;20.15;43.87;96043.50;6368022;22;20009;-59
2022/04/16 08:18:47;;;;;;;3.83;3.50;;;;;;;20.41;43.93;96050.03;6368009;22;20029;-58
2022/04/16 08:21:13;;;;;;;3.42;3.00;;;;;;;20.66;43.09;96045.06;6368241;22;20002;-58
2022/04/16 08:23:44;;;;;;;4.70;3.80;;;;;;;20.53;42.69;96044.97;6368088;22;20002;-58
2022/04/16 08:26:10;;;;;;;3.58;3.13;;;;;;;20.65;43.03;96045.25;6367706;22;20014;-58
2022/04/16 08:28:36;;;;;;;6.43;4.10;;;;;;;20.64;42.65;96038.25;6367884;22;20014;-59
2022/04/16 08:31:02;;;;;;;5.13;3.97;;;;;;;20.31;43.40;96045.03;6368241;22;20007;-60
2022/04/16 08:33:27;;;;;;;4.93;3.35;;;;;;;20.48;45.18;96045.59;6367916;22;19998;-60
2022/04/16 08:35:52;;;;;;;7.05;3.95;;;;;;;20.52;43.38;96054.03;6368340;22;20006;-60
2022/04/16 08:38:18;;;;;;;3.88;3.50;;;;;;;20.97;42.62;96051.03;6367517;22;20477;-60
2022/04/16 08:40:43;;;;;;;3.60;3.28;;;;;;;20.95;42.25;96053.06;6367721;22;20036;-58
2022/04/16 08:43:09;;;;;;;3.42;3.00;;;;;;;20.65;42.92;96048.78;6367687;22;20438;-61
2022/04/16 08:45:37;;;;;;;5.90;3.38;;;;;;;21.00;41.73;96048.78;6368069;22;20085;-59
2022/04/16 08:48:02;;;;;;;4.85;3.28;;;;;;;20.93;42.17;96039.88;6367476;22;20044;-58
2022/04/16 08:50:29;;;;;;;3.78;3.25;;;;;;;20.84;42.54;96041.91;6367435;22;20011;-59
2022/04/16 08:52:54;;;;;;;5.47;3.28;;;;;;;21.09;41.65;96035.22;6367593;22;20006;-59
2022/04/16 08:55:20;;;;;;;3.50;3.17;;;;;;;21.25;40.26;96034.03;6367660;22;20002;-58
2022/04/16 08:57:45;;;;;;;6.63;3.95;;;;;;;21.35;40.67;96028.31;6367664;22;20083;-58
2022/04/16 09:00:14;;;;;;;3.95;3.15;;;;;;;21.83;40.98;96019.34;6367566;22;20198;-58
2022/04/16 09:02:50;;;;;;;4.45;2.95;;;;;;;22.21;39.23;96013.34;6368000;22;20101;-57
2022/04/16 09:05:19;;;;;;;2.88;2.67;;;;;;;22.39;38.13;96015.41;6367196;22;20335;-60
2022/04/16 09:07:46;;;;;;;6.80;3.33;;;;;;;22.44;39.49;96009.44;6367304;22;20003;-60
2022/04/16 09:10:12;;;;;;;6.20;3.30;;;;;;;23.01;37.18;95996.28;6367384;22;20026;-60
2022/04/16 09:12:39;;;;;;;3.25;2.90;;;;;;;22.63;38.19;96001.53;6367618;22;19998;-59
2022/04/16 09:15:06;;;;;;;3.70;2.97;;;;;;;23.17;36.90;96003.00;6367256;22;20002;-59
2022/04/16 09:17:32;;;;;;;7.50;2.90;;;;;;;22.87;36.36;96000.84;6367056;22;20010;-60
2022/04/16 09:19:58;;;;;;;3.97;2.92;;;;;;;22.80;37.21;96000.06;6367029;22;20085;-57
2022/04/16 09:22:34;;;;;;;6.65;2.88;;;;;;;23.43;36.70;95997.72;6367278;22;19999;-60
2022/04/16 09:25:00;;;;;;;7.60;3.10;;;;;;;23.85;35.86;96006.09;6367806;22;20014;-59
2022/04/16 09:27:26;;;;;;;6.07;3.30;;;;;;;23.06;36.80;96003.66;6367155;22;20108;-59
2022/04/16 09:29:54;;;;;;;4.03;3.08;;;;;;;23.04;37.12;96005.75;6367097;22;20378;-61
2022/04/16 09:32:24;;;;;;;4.03;2.70;;;;;;;23.66;37.24;95997.16;6367279;22;20136;-60
2022/04/16 09:34:50;;;;;;;4.20;3.17;;;;;;;24.30;34.99;96001.63;6366927;22;19999;-59
2022/04/16 09:37:15;;;;;;;6.63;2.95;;;;;;;23.95;35.96;95999.44;6366594;22;20033;-57
2022/04/16 09:39:41;;;;;;;3.67;2.75;;;;;;;24.16;34.60;96001.75;6367187;22;19995;-59
2022/04/16 09:42:06;;;;;;;4.93;3.13;;;;;;;23.84;35.18;95991.03;6367217;22;19998;-59
2022/04/16 09:44:32;;;;;;;4.22;3.22;;;;;;;24.38;35.68;95987.06;6367432;22;20011;-57
2022/04/16 09:46:57;;;;;;;5.38;2.75;;;;;;;24.52;34.59;95990.44;6366836;22;20343;-57
2022/04/16 09:49:24;;;;;;;4.35;3.13;;;;;;;24.77;34.48;95985.03;6366697;22;20034;-57
2022/04/16 09:51:51;;;;;;;3.95;2.92;;;;;;;24.17;35.35;95983.75;6367320;22;20009;-57
2022/04/16 09:54:17;;;;;;;3.22;2.85;;;;;;;24.26;35.90;95982.44;6366800;22;20499;-57
2022/04/16 09:56:46;;;;;;;3.80;2.83;;;;;;;24.36;35.97;95973.84;6366732;22;19998;-57
2022/04/16 09:59:13;;;;;;;4.35;2.97;;;;;;;24.95;34.58;95970.72;6366829;22;20002;-57
2022/04/16 10:01:49;;;;;;;5.82;2.90;;;;;;;25.31;33.41;95958.22;6366833;22;20013;-57
2022/04/16 10:04:19;;;;;;;4.57;2.92;;;;;;;25.07;34.38;95964.56;6366714;22;20062;-58
2022/04/16 10:06:45;;;;;;;6.55;3.03;;;;;;;25.10;33.76;95967.66;6367231;22;20006;-60
2022/04/16 10:09:22;;;;;;;5.47;2.60;;;;;;;24.64;34.95;95969.00;6366886;22;19998;-57
2022/04/16 10:14:52;;;;;;;8.07;3.03;;;;;;;24.57;34.22;95966.41;6366600;22;20473;-57
2022/04/16 10:17:27;;;;;;;4.40;2.67;;;;;;;24.15;35.70;95964.31;6366545;22;19998;-56
2022/04/16 10:19:54;;;;;;;9.02;3.40;;;;;;;24.85;34.76;95965.06;6366737;22;20074;-57
2022/04/16 10:22:27;;;;;;;3.08;2.70;;;;;;;24.73;34.21;95964.97;6366959;22;20272;-56
2022/04/16 10:24:57;;;;;;;5.70;3.20;;;;;;;25.37;33.75;95956.50;6366737;22;20649;-58
2022/04/16 10:27:30;;;;;;;3.88;2.83;;;;;;;25.27;33.48;95956.22;6366557;22;20030;-56
2022/04/16 10:30:01;;;;;;;3.58;2.78;;;;;;;25.09;33.43;95954.41;6366716;22;20001;-57
2022/04/16 10:32:39;;;;;;;4.15;3.35;;;;;;;25.09;33.62;95959.78;6366779;22;20013;-57
2022/04/16 10:35:06;;;;;;;5.55;3.15;;;;;;;25.51;33.00;95957.16;6366693;22;20006;-57
2022/04/16 10:37:39;;;;;;;3.78;2.85;;;;;;;25.45;33.36;95955.34;6366597;22;20485;-56
2022/04/16 10:40:18;;;;;;;4.95;2.85;;;;;;;25.03;33.69;95965.03;6366565;22;20063;-57
2022/04/16 10:42:49;;;;;;;10.00;2.90;;;;;;;25.21;33.34;95959.84;6366757;22;20454;-57
2022/04/16 10:45:14;;;;;;;4.43;2.85;;;;;;;25.57;32.67;95953.53;6366474;22;20006;-57
2022/04/16 10:47:41;;;;;;;7.43;2.65;;;;;;;25.11;32.84;95953.13;6367728;22;20457;-57
2022/04/16 10:50:19;;;;;;;7.13;3.17;;;;;;;25.13;33.11;95953.72;6368509;22;20014;-57
2022/04/16 10:53:00;;;;;;;2.70;2.45;;;;;;;25.25;33.39;95950.22;6340705;22;20037;-56
2022/04/16 10:55:33;;;;;;;4.55;3.22;;;;;;;25.27;32.91;95940.03;6369330;22;20050;-57
2022/04/16 10:58:06;;;;;;;5.00;2.80;;;;;;;25.68;33.17;95951.09;6368734;22;20073;-57
2022/04/16 11:00:46;;;;;;;2.95;2.75;;;;;;;25.99;31.90;95941.88;6368666;22;20010;-57
2022/04/16 11:03:12;;;;;;;2.88;2.60;;;;;;;25.39;33.23;95942.78;6369369;22;20331;-57
2022/04/16 11:05:41;;;;;;;4.50;2.72;;;;;;;24.93;32.84;95939.69;6368278;22;20010;-56
2022/04/16 11:08:07;;;;;;;2.90;2.70;;;;;;;25.29;33.07;95937.94;6368859;22;20075;-57
2022/04/16 11:10:33;;;;;;;2.85;2.50;;;;;;;25.21;32.96;95941.81;6368790;22;20507;-58
2022/04/16 11:12:58;;;;;;;5.47;2.67;;;;;;;25.18;33.31;95926.06;6368748;22;20343;-57
2022/04/16 11:15:26;;;;;;;2.60;2.40;;;;;;;25.34;33.33;95932.72;6368440;22;20340;-58
2022/04/16 11:17:59;;;;;;;4.45;2.58;;;;;;;25.43;32.38;95920.53;6369143;22;20008;-58
2022/04/16 11:20:27;;;;;;;3.58;2.45;;;;;;;25.43;31.92;95931.31;6368551;22;20006;-58
2022/04/16 11:22:56;;;;;;;4.43;2.55;;;;;;;24.94;33.99;95919.81;6368653;22;20095;-58
2022/04/16 11:25:23;;;;;;;3.63;2.83;;;;;;;25.15;32.52;95915.78;6368826;22;20026;-57
2022/04/16 11:36:08;;;;;;;4.28;2.30;;;;;;;25.49;32.11;95916.13;6368347;22;20277;-57
2022/04/16 11:38:39;;;;;;;4.18;2.17;;;;;;;25.63;31.72;95914.03;6368377;22;20077;-58
2022/04/16 11:41:10;;;;;;;3.38;2.55;;;;;;;26.26;31.56;95913.59;6368696;22;20010;-58
2022/04/16 11:43:38;;;;;;;5.72;2.38;;;;;;;26.19;31.41;95908.31;6368179;22;20380;-58
2022/04/16 11:46:11;;;;;;;2.42;2.22;;;;;;;26.05;31.12;95910.41;6368338;22;20525;-58
2022/04/16 11:48:37;;;;;;;3.90;2.40;;;;;;;26.15;32.11;95899.88;6368126;22;20077;-58
2022/04/16 11:51:04;;;;;;;2.83;2.40;;;;;;;26.05;30.97;95901.53;6368432;22;20054;-57
2022/04/16 11:53:29;;;;;;;7.05;2.50;;;;;;;25.99;31.87;95908.66;6368165;22;20018;-57